createdAt,value
2022-08-03T00:00:03.078Z,21.37
2022-08-03T00:01:03.058Z,21.35
2022-08-03T00:02:03.040Z,21.33
2022-08-03T00:03:03.099Z,21.33
2022-08-03T00:04:03.030Z,21.30
2022-08-03T00:05:03.009Z,21.29
2022-08-03T00:06:03.877Z,21.25
2022-08-03T00:07:02.977Z,21.24
2022-08-03T00:08:02.977Z,21.22
2022-08-03T00:09:02.956Z,21.20
2022-08-03T00:10:02.945Z,21.20
2022-08-03T00:11:02.928Z,21.17
2022-08-03T00:12:02.919Z,21.15
2022-08-03T00:13:02.915Z,21.11
2022-08-03T00:14:02.889Z,21.11
2022-08-03T00:15:02.878Z,21.07
2022-08-03T00:16:02.856Z,21.07
2022-08-03T00:17:02.848Z,21.06
2022-08-03T00:18:02.838Z,21.05
2022-08-03T00:19:02.821Z,21.03
2022-08-03T00:20:02.827Z,21.02
2022-08-03T00:21:02.797Z,21.02
2022-08-03T00:22:02.777Z,20.97
2022-08-03T00:23:02.786Z,20.97
2022-08-03T00:24:02.750Z,20.96
2022-08-03T00:25:02.750Z,20.95
2022-08-03T00:26:02.738Z,20.93
2022-08-03T00:27:02.721Z,20.92
2022-08-03T00:28:02.710Z,20.90
2022-08-03T00:29:02.700Z,20.87
2022-08-03T00:30:02.734Z,20.87
2022-08-03T00:31:02.668Z,20.85
2022-08-03T00:32:02.666Z,20.82
2022-08-03T00:33:02.648Z,20.80
2022-08-03T00:34:03.532Z,20.80
2022-08-03T00:35:08.328Z,20.78
2022-08-03T00:36:03.588Z,20.78
2022-08-03T00:37:02.589Z,20.75
2022-08-03T00:38:02.577Z,20.74
2022-08-03T00:39:02.560Z,20.72
2022-08-03T00:40:03.478Z,20.72
2022-08-03T00:41:02.537Z,20.70
2022-08-03T00:42:02.520Z,20.69
2022-08-03T00:43:02.517Z,20.66
2022-08-03T00:44:02.486Z,20.62
2022-08-03T00:45:02.477Z,20.62
2022-08-03T00:46:02.463Z,20.63
2022-08-03T00:47:02.449Z,20.60
2022-08-03T00:48:02.449Z,20.59
2022-08-03T00:49:02.470Z,20.58
2022-08-03T00:50:02.406Z,20.56
2022-08-03T00:51:02.401Z,20.55
2022-08-03T00:52:07.721Z,20.55
2022-08-03T00:53:03.390Z,20.52
2022-08-03T00:54:02.347Z,20.52
2022-08-03T00:55:02.349Z,20.50
2022-08-03T00:56:02.329Z,20.50
2022-08-03T00:57:02.318Z,20.47
2022-08-03T00:58:02.317Z,20.47
2022-08-03T00:59:02.289Z,20.43
2022-08-03T01:00:02.270Z,20.41
2022-08-03T01:01:02.350Z,20.41
2022-08-03T01:02:02.250Z,20.40
2022-08-03T01:03:02.248Z,20.39
2022-08-03T01:04:02.218Z,20.36
2022-08-03T01:05:02.216Z,20.36
2022-08-03T01:06:02.187Z,20.34
2022-08-03T01:07:02.195Z,20.32
2022-08-03T01:08:02.178Z,20.32
2022-08-03T01:09:02.158Z,20.31
2022-08-03T01:10:02.140Z,20.28
2022-08-03T01:11:02.129Z,20.26
2022-08-03T01:12:02.113Z,20.25
2022-08-03T01:13:02.120Z,20.24
2022-08-03T01:14:18.764Z,20.25
2022-08-03T01:15:03.078Z,20.22
2022-08-03T01:16:02.059Z,20.21
2022-08-03T01:17:02.049Z,20.19
2022-08-03T01:18:02.048Z,20.19
2022-08-03T01:19:02.019Z,20.14
2022-08-03T01:20:02.117Z,20.14
2022-08-03T01:21:01.997Z,20.13
2022-08-03T01:22:01.980Z,20.11
2022-08-03T01:23:01.987Z,20.10
2022-08-03T01:24:01.954Z,20.07
2022-08-03T01:25:01.948Z,20.07
2022-08-03T01:26:01.925Z,20.06
2022-08-03T01:27:02.592Z,20.04
2022-08-03T01:28:01.918Z,20.03
2022-08-03T01:29:01.890Z,20.03
2022-08-03T01:30:01.878Z,20.00
2022-08-03T01:31:01.858Z,19.99
2022-08-03T01:32:58.360Z,19.99
2022-08-03T01:33:03.499Z,19.94
2022-08-03T01:34:01.828Z,19.94
2022-08-03T01:35:01.809Z,19.91
2022-08-03T01:36:01.798Z,19.89
2022-08-03T01:37:01.787Z,19.89
2022-08-03T01:38:01.789Z,19.86
2022-08-03T01:39:01.758Z,19.85
2022-08-03T01:40:01.740Z,19.85
2022-08-03T01:41:01.727Z,19.82
2022-08-03T01:42:01.719Z,19.82
2022-08-03T01:43:01.709Z,19.81
2022-08-03T01:44:27.478Z,19.81
2022-08-03T01:45:02.676Z,19.77
2022-08-03T01:46:01.659Z,19.76
2022-08-03T01:47:01.640Z,19.74
2022-08-03T01:48:01.648Z,19.73
2022-08-03T01:49:09.436Z,19.71
2022-08-03T01:50:02.616Z,19.70
2022-08-03T01:51:01.594Z,19.67
2022-08-03T01:52:13.240Z,19.67
2022-08-03T01:53:02.581Z,19.66
2022-08-03T01:54:01.558Z,19.66
2022-08-03T01:55:01.540Z,19.63
2022-08-03T01:56:01.533Z,19.63
2022-08-03T01:57:01.508Z,19.62
2022-08-03T01:58:05.873Z,19.59
2022-08-03T01:59:01.491Z,19.58
2022-08-03T02:00:01.477Z,19.58
2022-08-03T02:01:01.535Z,19.56
2022-08-03T02:02:31.959Z,19.55
2022-08-03T02:03:02.448Z,19.54
2022-08-03T02:04:01.427Z,19.52
2022-08-03T02:05:01.407Z,19.51
2022-08-03T02:07:02.102Z,19.51
2022-08-03T02:07:03.442Z,19.48
2022-08-03T02:08:01.379Z,19.45
2022-08-03T02:09:01.348Z,19.44
2022-08-03T02:10:01.346Z,19.41
2022-08-03T02:11:01.318Z,19.40
2022-08-03T02:12:01.317Z,19.39
2022-08-03T02:13:01.315Z,19.37
2022-08-03T02:14:01.291Z,19.36
2022-08-03T02:15:01.276Z,19.34
2022-08-03T02:16:01.261Z,19.34
2022-08-03T02:17:01.246Z,19.33
2022-08-03T02:18:01.248Z,19.30
2022-08-03T02:19:01.225Z,19.29
2022-08-03T02:20:01.208Z,19.26
2022-08-03T02:21:01.188Z,19.26
2022-08-03T02:22:10.656Z,19.26
2022-08-03T02:23:02.187Z,19.22
2022-08-03T02:24:01.168Z,19.21
2022-08-03T02:25:01.146Z,19.19
2022-08-03T02:26:01.915Z,19.18
2022-08-03T02:27:01.109Z,19.16
2022-08-03T02:28:01.118Z,19.15
2022-08-03T02:29:01.080Z,19.14
2022-08-03T02:30:01.077Z,19.12
2022-08-03T02:31:01.059Z,19.12
2022-08-03T02:32:01.049Z,19.11
2022-08-03T02:33:02.446Z,19.08
2022-08-03T02:34:01.339Z,19.09
2022-08-03T02:35:01.008Z,19.07
2022-08-03T02:36:00.998Z,19.07
2022-08-03T02:37:00.977Z,19.04
2022-08-03T02:38:00.986Z,19.02
2022-08-03T02:39:00.948Z,19.02
2022-08-03T02:40:00.948Z,19.02
2022-08-03T02:41:00.930Z,18.99
2022-08-03T02:42:00.916Z,18.99
2022-08-03T02:43:00.919Z,18.98
2022-08-03T02:44:06.403Z,18.96
2022-08-03T02:45:01.869Z,18.95
2022-08-03T02:46:00.858Z,18.95
2022-08-03T02:47:00.849Z,18.93
2022-08-03T02:48:00.855Z,18.93
2022-08-03T02:49:00.844Z,18.90
2022-08-03T02:50:01.843Z,18.90
2022-08-03T02:51:00.795Z,18.89
2022-08-03T02:52:00.778Z,18.90
2022-08-03T02:53:00.780Z,18.88
2022-08-03T02:54:00.758Z,18.86
2022-08-03T02:55:00.746Z,18.86
2022-08-03T02:56:00.727Z,18.84
2022-08-03T02:57:00.715Z,18.84
2022-08-03T02:58:01.451Z,18.83
2022-08-03T02:59:00.687Z,18.81
2022-08-03T03:00:00.688Z,18.78
2022-08-03T03:01:00.707Z,18.78
2022-08-03T03:02:00.648Z,18.77
2022-08-03T03:03:00.846Z,18.77
2022-08-03T03:04:00.625Z,18.73
2022-08-03T03:05:56.406Z,18.74
2022-08-03T03:06:01.596Z,18.73
2022-08-03T03:07:01.886Z,18.73
2022-08-03T03:08:00.577Z,18.71
2022-08-03T03:09:00.568Z,18.68
2022-08-03T03:10:00.547Z,18.70
2022-08-03T03:11:00.532Z,18.66
2022-08-03T03:12:00.517Z,18.63
2022-08-03T03:13:00.496Z,18.63
2022-08-03T03:14:00.506Z,18.60
2022-08-03T03:15:00.469Z,18.59
2022-08-03T03:16:00.465Z,18.59
2022-08-03T03:17:00.449Z,18.56
2022-08-03T03:18:00.437Z,18.56
2022-08-03T03:19:00.427Z,18.56
2022-08-03T03:20:00.408Z,18.56
2022-08-03T03:21:00.396Z,18.52
2022-08-03T03:22:00.377Z,18.52
2022-08-03T03:23:00.407Z,18.52
2022-08-03T03:24:00.367Z,18.50
2022-08-03T03:25:00.337Z,18.49
2022-08-03T03:26:00.337Z,18.47
2022-08-03T03:27:00.309Z,18.47
2022-08-03T03:28:00.305Z,18.45
2022-08-03T03:29:00.310Z,18.44
2022-08-03T03:30:00.277Z,18.44
2022-08-03T03:31:00.259Z,18.43
2022-08-03T03:32:00.252Z,18.41
2022-08-03T03:33:00.237Z,18.40
2022-08-03T03:34:00.238Z,18.38
2022-08-03T03:35:00.207Z,18.37
2022-08-03T03:36:00.195Z,18.35
2022-08-03T03:37:00.186Z,18.34
2022-08-03T03:38:00.167Z,18.35
2022-08-03T03:39:00.165Z,18.33
2022-08-03T03:40:01.136Z,18.33
2022-08-03T03:41:00.126Z,18.31
2022-08-03T03:42:00.125Z,18.29
2022-08-03T03:43:00.097Z,18.31
2022-08-03T03:44:00.112Z,18.28
2022-08-03T03:45:00.076Z,18.26
2022-08-03T03:46:00.070Z,18.26
2022-08-03T03:47:00.049Z,18.25
2022-08-03T03:48:00.035Z,18.26
2022-08-03T03:49:00.079Z,18.23
2022-08-03T03:50:00.008Z,18.22
2022-08-03T03:50:59.987Z,18.22
2022-08-03T03:51:59.986Z,18.20
2022-08-03T03:52:59.965Z,18.20
2022-08-03T03:53:59.974Z,18.19
2022-08-03T03:55:01.288Z,18.19
2022-08-03T03:56:02.390Z,18.18
2022-08-03T03:56:59.907Z,18.18
2022-08-03T03:57:59.907Z,18.15
2022-08-03T03:58:59.895Z,18.15
2022-08-03T03:59:59.876Z,18.15
2022-08-03T04:00:59.965Z,18.11
2022-08-03T04:01:59.854Z,18.13
2022-08-03T04:02:59.834Z,18.11
2022-08-03T04:03:59.839Z,18.13
2022-08-03T04:04:59.808Z,18.10
2022-08-03T04:05:59.797Z,18.11
2022-08-03T04:06:59.775Z,18.10
2022-08-03T04:07:59.773Z,18.08
2022-08-03T04:08:59.779Z,18.07
2022-08-03T04:09:59.745Z,18.07
2022-08-03T04:11:00.728Z,18.05
2022-08-03T04:11:59.715Z,18.05
2022-08-03T04:12:59.703Z,18.05
2022-08-03T04:14:01.732Z,18.05
2022-08-03T04:14:59.666Z,18.03
2022-08-03T04:15:59.663Z,18.03
2022-08-03T04:16:59.665Z,18.04
2022-08-03T04:17:59.635Z,18.04
2022-08-03T04:18:59.632Z,18.01
2022-08-03T04:19:59.619Z,18.03
2022-08-03T04:20:59.587Z,18.01
2022-08-03T04:21:59.594Z,18.01
2022-08-03T04:22:59.565Z,18.01
2022-08-03T04:23:59.566Z,18.01
2022-08-03T04:24:59.535Z,18.01
2022-08-03T04:25:59.526Z,18.00
2022-08-03T04:26:59.518Z,18.01
2022-08-03T04:28:28.279Z,18.03
2022-08-03T04:29:00.496Z,18.01
2022-08-03T04:29:59.475Z,18.01
2022-08-03T04:30:59.465Z,18.01
2022-08-03T04:31:59.463Z,18.00
2022-08-03T04:32:59.435Z,18.01
2022-08-03T04:33:59.437Z,18.01
2022-08-03T04:34:59.411Z,18.03
2022-08-03T04:36:02.757Z,18.03
2022-08-03T04:36:59.375Z,18.03
2022-08-03T04:37:59.374Z,18.04
2022-08-03T04:38:59.366Z,18.03
2022-08-03T04:39:59.347Z,18.04
2022-08-03T04:40:59.327Z,18.03
2022-08-03T04:42:07.176Z,18.04
2022-08-03T04:43:00.302Z,18.03
2022-08-03T04:43:59.305Z,18.05
2022-08-03T04:45:01.589Z,18.04
2022-08-03T04:45:59.263Z,18.05
2022-08-03T04:46:59.247Z,18.07
2022-08-03T04:47:59.249Z,18.07
2022-08-03T04:48:59.315Z,18.07
2022-08-03T04:49:59.214Z,18.10
2022-08-03T04:50:59.194Z,18.10
2022-08-03T04:51:59.186Z,18.13
2022-08-03T04:52:59.166Z,18.13
2022-08-03T04:53:59.174Z,18.18
2022-08-03T04:54:59.146Z,18.18
2022-08-03T04:55:59.127Z,18.20
2022-08-03T04:56:59.113Z,18.23
2022-08-03T04:57:59.095Z,18.23
2022-08-03T04:58:59.095Z,18.26
2022-08-03T05:00:02.991Z,18.31
2022-08-03T05:00:59.064Z,18.33
2022-08-03T05:01:59.095Z,18.35
2022-08-03T05:02:59.036Z,18.40
2022-08-03T05:03:59.035Z,18.44
2022-08-03T05:04:59.036Z,18.50
2022-08-03T05:06:09.866Z,18.56
2022-08-03T05:06:59.977Z,18.62
2022-08-03T05:08:00.801Z,18.71
2022-08-03T05:08:58.965Z,18.78
2022-08-03T05:10:03.054Z,18.86
2022-08-03T05:10:59.452Z,18.93
2022-08-03T05:11:58.916Z,19.02
2022-08-03T05:12:58.894Z,19.12
2022-08-03T05:13:58.897Z,19.24
2022-08-03T05:14:58.866Z,19.31
2022-08-03T05:15:58.856Z,19.40
2022-08-03T05:16:58.846Z,19.51
2022-08-03T05:17:58.836Z,19.58
2022-08-03T05:18:58.836Z,19.67
2022-08-03T05:19:58.816Z,19.77
2022-08-03T05:20:58.797Z,19.85
2022-08-03T05:21:58.789Z,19.92
2022-08-03T05:22:58.766Z,20.02
2022-08-03T05:23:58.766Z,20.10
2022-08-03T05:24:58.736Z,20.19
2022-08-03T05:25:58.725Z,20.28
2022-08-03T05:26:58.716Z,20.37
2022-08-03T05:27:58.706Z,20.50
2022-08-03T05:28:58.708Z,20.62
2022-08-03T05:30:30.501Z,20.70
2022-08-03T05:30:59.680Z,20.78
2022-08-03T05:31:58.661Z,20.87
2022-08-03T05:32:58.633Z,20.93
2022-08-03T05:33:58.643Z,21.03
2022-08-03T05:34:58.607Z,21.09
2022-08-03T05:36:03.577Z,21.14
2022-08-03T05:36:59.577Z,21.15
2022-08-03T05:37:58.569Z,21.17
2022-08-03T05:39:02.624Z,21.18
2022-08-03T05:39:58.538Z,21.25
2022-08-03T05:41:22.293Z,21.29
2022-08-03T05:41:59.520Z,21.35
2022-08-03T05:42:58.505Z,21.40
2022-08-03T05:43:58.506Z,21.46
2022-08-03T05:44:58.480Z,21.51
2022-08-03T05:46:12.000Z,21.55
2022-08-03T05:46:59.475Z,21.57
2022-08-03T05:47:58.429Z,21.62
2022-08-03T05:48:58.503Z,21.67
2022-08-03T05:49:58.407Z,21.73
2022-08-03T05:50:58.398Z,21.83
2022-08-03T05:52:08.124Z,21.95
2022-08-03T05:52:59.369Z,21.99
2022-08-03T05:53:58.361Z,22.11
2022-08-03T05:54:58.353Z,22.23
2022-08-03T05:56:03.408Z,22.35
2022-08-03T05:56:59.319Z,22.45
2022-08-03T05:57:58.301Z,22.55
2022-08-03T05:59:00.012Z,22.65
2022-08-03T05:59:59.300Z,22.78
2022-08-03T06:00:58.273Z,22.87
2022-08-03T06:01:58.303Z,23.00
2022-08-03T06:02:58.240Z,23.10
2022-08-03T06:03:58.229Z,23.23
2022-08-03T06:04:58.220Z,23.32
2022-08-03T06:06:00.278Z,23.43
2022-08-03T06:06:58.188Z,23.54
2022-08-03T06:07:58.176Z,23.62
2022-08-03T06:08:58.177Z,23.71
2022-08-03T06:10:36.427Z,23.80
2022-08-03T06:10:59.131Z,23.86
2022-08-03T06:11:58.119Z,23.93
2022-08-03T06:12:58.110Z,24.02
2022-08-03T06:13:58.113Z,24.16
2022-08-03T06:14:58.087Z,24.29
2022-08-03T06:15:58.089Z,24.40
2022-08-03T06:16:58.066Z,24.55
2022-08-03T06:18:01.738Z,24.63
2022-08-03T06:18:58.034Z,24.69
2022-08-03T06:19:58.026Z,24.74
2022-08-03T06:20:58.005Z,24.80
2022-08-03T06:21:58.990Z,24.96
2022-08-03T06:23:00.233Z,25.10
2022-08-03T06:23:57.962Z,25.23
2022-08-03T06:24:57.959Z,25.36
2022-08-03T06:25:57.934Z,25.38
2022-08-03T06:26:57.924Z,25.46
2022-08-03T06:27:57.905Z,25.55
2022-08-03T06:28:57.892Z,25.68
2022-08-03T06:29:57.891Z,25.80
2022-08-03T06:30:57.894Z,25.95
2022-08-03T06:31:57.862Z,26.06
2022-08-03T06:32:57.841Z,26.21
2022-08-03T06:34:32.872Z,26.34
2022-08-03T06:34:58.859Z,26.47
2022-08-03T06:35:57.792Z,26.60
2022-08-03T06:37:01.930Z,26.71
2022-08-03T06:37:57.771Z,26.80
2022-08-03T06:38:57.764Z,26.92
2022-08-03T06:39:57.753Z,27.02
2022-08-03T06:40:57.733Z,27.12
2022-08-03T06:41:57.723Z,27.17
2022-08-03T06:42:57.713Z,27.20
2022-08-03T06:44:03.014Z,27.29
2022-08-03T06:44:58.703Z,27.35
2022-08-03T06:45:57.674Z,27.44
2022-08-03T06:46:57.662Z,27.52
2022-08-03T06:47:57.643Z,27.60
2022-08-03T06:48:57.678Z,27.63
2022-08-03T06:50:12.940Z,27.67
2022-08-03T06:50:58.623Z,27.71
2022-08-03T06:52:04.631Z,27.75
2022-08-03T06:52:58.584Z,27.83
2022-08-03T06:53:57.564Z,27.93
2022-08-03T06:54:57.576Z,28.05
2022-08-03T06:55:57.543Z,28.20
2022-08-03T06:56:57.535Z,28.35
2022-08-03T06:57:59.933Z,28.48
2022-08-03T06:58:58.504Z,28.57
2022-08-03T07:00:09.451Z,28.67
2022-08-03T07:00:58.616Z,28.75
2022-08-03T07:01:57.465Z,28.81
2022-08-03T07:02:58.497Z,28.86
2022-08-03T07:03:57.435Z,28.98
2022-08-03T07:04:57.470Z,29.13
2022-08-03T07:05:57.406Z,29.24
2022-08-03T07:06:57.397Z,29.42
2022-08-03T07:07:57.391Z,29.57
2022-08-03T07:08:59.497Z,29.69
2022-08-03T07:09:58.323Z,29.84
2022-08-03T07:10:57.347Z,29.98
2022-08-03T07:11:57.326Z,30.16
2022-08-03T07:12:57.317Z,30.19
2022-08-03T07:13:57.307Z,30.18
2022-08-03T07:15:00.691Z,30.21
2022-08-03T07:15:57.276Z,30.31
2022-08-03T07:16:57.269Z,30.44
2022-08-03T07:17:57.255Z,30.53
2022-08-03T07:18:57.238Z,30.61
2022-08-03T07:19:57.249Z,30.72
2022-08-03T07:20:57.371Z,30.84
2022-08-03T07:22:00.178Z,31.02
2022-08-03T07:22:58.187Z,31.18
2022-08-03T07:23:57.169Z,31.34
2022-08-03T07:24:57.178Z,31.49
2022-08-03T07:25:57.148Z,31.62
2022-08-03T07:26:57.139Z,31.62
2022-08-03T07:27:57.119Z,31.70
2022-08-03T07:28:57.181Z,31.70
2022-08-03T07:29:57.108Z,31.66
2022-08-03T07:30:57.089Z,31.70
2022-08-03T07:31:57.071Z,31.77
2022-08-03T07:32:57.059Z,31.90
2022-08-03T07:33:57.040Z,32.04
2022-08-03T07:35:00.522Z,32.19
2022-08-03T07:35:57.025Z,32.33
2022-08-03T07:36:57.011Z,32.43
2022-08-03T07:37:57.001Z,32.53
2022-08-03T07:38:56.988Z,32.65
2022-08-03T07:39:56.980Z,32.71
2022-08-03T07:40:56.952Z,32.82
2022-08-03T07:41:56.940Z,32.89
2022-08-03T07:42:56.933Z,32.97
2022-08-03T07:43:56.912Z,33.07
2022-08-03T07:44:56.932Z,33.12
2022-08-03T07:45:56.921Z,33.20
2022-08-03T07:46:56.880Z,33.30
2022-08-03T07:47:56.864Z,33.39
2022-08-03T07:48:56.900Z,33.47
2022-08-03T07:49:56.852Z,33.55
2022-08-03T07:50:56.832Z,33.57
2022-08-03T07:51:56.811Z,33.57
2022-08-03T07:52:56.809Z,33.62
2022-08-03T07:53:56.783Z,33.67
2022-08-03T07:54:56.805Z,33.71
2022-08-03T07:55:56.762Z,33.79
2022-08-03T07:56:56.752Z,33.87
2022-08-03T07:57:56.732Z,33.96
2022-08-03T07:58:56.723Z,34.08
2022-08-03T08:00:02.400Z,34.20
2022-08-03T08:00:57.736Z,34.32
2022-08-03T08:01:56.686Z,34.43
2022-08-03T08:02:56.675Z,34.55
2022-08-03T08:03:56.662Z,34.70
2022-08-03T08:04:56.683Z,34.81
2022-08-03T08:05:56.631Z,34.88
2022-08-03T08:06:56.623Z,34.96
2022-08-03T08:07:56.607Z,35.08
2022-08-03T08:08:56.608Z,35.23
2022-08-03T08:09:56.606Z,35.36
2022-08-03T08:10:57.978Z,35.45
2022-08-03T08:11:56.604Z,35.51
2022-08-03T08:12:56.547Z,35.58
2022-08-03T08:13:56.535Z,35.67
2022-08-03T08:14:56.523Z,35.73
2022-08-03T08:15:56.515Z,35.78
2022-08-03T08:16:56.496Z,35.76
2022-08-03T08:17:56.485Z,35.82
2022-08-03T08:18:56.466Z,35.79
2022-08-03T08:19:56.446Z,35.86
2022-08-03T08:20:56.468Z,35.93
2022-08-03T08:22:02.451Z,36.05
2022-08-03T08:22:57.424Z,36.16
2022-08-03T08:23:57.800Z,36.27
2022-08-03T08:24:56.395Z,36.39
2022-08-03T08:25:56.391Z,36.52
2022-08-03T08:26:56.367Z,36.67
2022-08-03T08:28:29.184Z,36.80
2022-08-03T08:28:57.377Z,36.86
2022-08-03T08:29:59.591Z,36.95
2022-08-03T08:30:57.348Z,37.06
2022-08-03T08:31:56.302Z,37.20
2022-08-03T08:32:56.295Z,37.37
2022-08-03T08:34:04.562Z,37.49
2022-08-03T08:34:57.287Z,37.55
2022-08-03T08:35:56.259Z,37.63
2022-08-03T08:36:56.248Z,37.74
2022-08-03T08:37:56.228Z,37.82
2022-08-03T08:38:56.219Z,37.78
2022-08-03T08:39:56.198Z,37.75
2022-08-03T08:40:56.210Z,37.80
2022-08-03T08:41:56.168Z,37.92
2022-08-03T08:42:58.847Z,38.02
2022-08-03T08:43:59.951Z,38.12
2022-08-03T08:44:56.201Z,38.20
2022-08-03T08:45:56.159Z,38.27
2022-08-03T08:46:56.120Z,38.30
2022-08-03T08:48:00.384Z,38.26
2022-08-03T08:48:57.129Z,38.21
2022-08-03T08:50:09.252Z,38.23
2022-08-03T08:50:57.070Z,38.12
2022-08-03T08:52:00.566Z,38.09
2022-08-03T08:52:57.041Z,38.09
2022-08-03T08:53:56.021Z,38.02
2022-08-03T08:54:56.011Z,38.02
2022-08-03T08:55:57.191Z,38.06
2022-08-03T08:56:55.981Z,38.08
2022-08-03T08:57:55.972Z,38.09
2022-08-03T08:58:55.994Z,38.19
2022-08-03T08:59:57.334Z,38.27
2022-08-03T09:00:56.024Z,38.38
2022-08-03T09:01:55.952Z,38.48
2022-08-03T09:02:55.933Z,38.58
2022-08-03T09:03:55.911Z,38.60
2022-08-03T09:04:55.883Z,38.62
2022-08-03T09:05:56.501Z,38.68
2022-08-03T09:07:18.683Z,38.79
2022-08-03T09:07:56.951Z,38.91
2022-08-03T09:08:55.833Z,39.03
2022-08-03T09:10:10.475Z,39.18
2022-08-03T09:10:56.845Z,39.22
2022-08-03T09:12:13.767Z,39.37
2022-08-03T09:12:56.782Z,39.48
2022-08-03T09:13:55.765Z,39.60
2022-08-03T09:15:15.829Z,39.63
2022-08-03T09:16:00.998Z,39.59
2022-08-03T09:16:55.735Z,39.51
2022-08-03T09:17:55.712Z,39.41
2022-08-03T09:18:55.710Z,39.41
2022-08-03T09:20:02.840Z,39.46
2022-08-03T09:20:56.695Z,39.49
2022-08-03T09:22:03.161Z,39.48
2022-08-03T09:22:55.658Z,39.49
2022-08-03T09:24:04.691Z,39.48
2022-08-03T09:25:21.569Z,39.46
2022-08-03T09:25:56.627Z,39.53
2022-08-03T09:26:55.603Z,39.62
2022-08-03T09:27:55.588Z,39.71
2022-08-03T09:29:03.884Z,39.74
2022-08-03T09:29:56.567Z,39.81
2022-08-03T09:30:55.574Z,39.89
2022-08-03T09:31:55.537Z,39.85
2022-08-03T09:32:55.551Z,39.78
2022-08-03T09:33:55.517Z,39.77
2022-08-03T09:34:58.193Z,39.78
2022-08-03T09:35:57.775Z,39.80
2022-08-03T09:36:55.904Z,39.81
2022-08-03T09:38:11.798Z,39.80
2022-08-03T09:38:56.457Z,39.80
2022-08-03T09:39:55.437Z,39.63
2022-08-03T09:40:59.441Z,39.48
2022-08-03T09:41:56.417Z,39.37
2022-08-03T09:42:55.407Z,39.33
2022-08-03T09:43:55.387Z,39.30
2022-08-03T09:44:55.375Z,39.37
2022-08-03T09:45:55.379Z,39.49
2022-08-03T09:46:55.352Z,39.62
2022-08-03T09:47:55.346Z,39.67
2022-08-03T09:48:55.370Z,39.67
2022-08-03T09:49:55.308Z,39.75
2022-08-03T09:50:58.407Z,39.86
2022-08-03T09:52:39.470Z,39.92
2022-08-03T09:52:56.269Z,39.94
2022-08-03T09:53:59.144Z,40.05
2022-08-03T09:54:55.239Z,40.14
2022-08-03T09:56:34.857Z,40.15
2022-08-03T09:56:56.222Z,40.11
2022-08-03T09:57:55.220Z,40.05
2022-08-03T09:58:55.190Z,40.00
2022-08-03T10:00:04.603Z,40.00
2022-08-03T10:00:56.273Z,39.99
2022-08-03T10:01:55.240Z,39.92
2022-08-03T10:02:55.151Z,39.89
2022-08-03T10:04:04.303Z,39.89
2022-08-03T10:04:56.111Z,39.93
2022-08-03T10:05:59.492Z,39.92
2022-08-03T10:06:56.091Z,39.78
2022-08-03T10:07:55.176Z,39.77
2022-08-03T10:08:55.217Z,39.83
2022-08-03T10:09:55.060Z,39.99
2022-08-03T10:10:55.063Z,40.16
2022-08-03T10:11:55.045Z,40.34
2022-08-03T10:12:55.013Z,40.53
2022-08-03T10:14:01.072Z,40.66
2022-08-03T10:14:56.004Z,40.80
2022-08-03T10:16:23.006Z,40.92
2022-08-03T10:16:55.967Z,40.96
2022-08-03T10:17:54.967Z,40.97
2022-08-03T10:18:54.962Z,40.99
2022-08-03T10:19:54.936Z,41.07
2022-08-03T10:20:54.934Z,41.14
2022-08-03T10:21:54.913Z,41.10
2022-08-03T10:22:54.903Z,41.02
2022-08-03T10:23:54.894Z,41.04
2022-08-03T10:24:54.874Z,41.07
2022-08-03T10:25:54.898Z,41.04
2022-08-03T10:26:54.864Z,41.14
2022-08-03T10:27:54.844Z,41.22
2022-08-03T10:28:54.815Z,41.26
2022-08-03T10:29:54.805Z,41.22
2022-08-03T10:30:54.805Z,41.18
2022-08-03T10:31:58.120Z,41.14
2022-08-03T10:32:54.767Z,41.16
2022-08-03T10:33:54.757Z,41.06
2022-08-03T10:35:00.158Z,40.80
2022-08-03T10:35:55.741Z,40.80
2022-08-03T10:36:54.707Z,40.84
2022-08-03T10:37:56.544Z,40.96
2022-08-03T10:38:54.687Z,41.00
2022-08-03T10:39:54.687Z,41.03
2022-08-03T10:40:58.766Z,41.04
2022-08-03T10:41:54.647Z,41.12
2022-08-03T10:42:54.628Z,41.21
2022-08-03T10:43:54.636Z,41.21
2022-08-03T10:44:54.608Z,41.09
2022-08-03T10:45:54.618Z,41.04
2022-08-03T10:46:54.580Z,41.03
2022-08-03T10:47:54.578Z,41.04
2022-08-03T10:48:54.644Z,41.09
2022-08-03T10:49:54.604Z,41.12
2022-08-03T10:51:03.267Z,41.14
2022-08-03T10:51:54.595Z,41.07
2022-08-03T10:52:54.530Z,40.96
2022-08-03T10:53:55.764Z,40.82
2022-08-03T10:54:54.495Z,40.63
2022-08-03T10:55:54.514Z,40.46
2022-08-03T10:56:54.841Z,40.34
2022-08-03T10:57:58.295Z,40.27
2022-08-03T10:58:57.657Z,40.16
2022-08-03T10:59:54.416Z,40.14
2022-08-03T11:00:54.470Z,40.06
2022-08-03T11:01:58.498Z,39.97
2022-08-03T11:02:55.406Z,39.87
2022-08-03T11:03:54.400Z,39.77
2022-08-03T11:04:54.365Z,39.68
2022-08-03T11:05:54.365Z,39.67
2022-08-03T11:06:54.327Z,39.59
2022-08-03T11:07:54.680Z,39.52
2022-08-03T11:08:54.317Z,39.44
2022-08-03T11:09:54.298Z,39.36
2022-08-03T11:10:54.297Z,39.33
2022-08-03T11:11:54.334Z,39.24
2022-08-03T11:12:54.258Z,39.12
2022-08-03T11:13:54.248Z,38.97
2022-08-03T11:14:54.374Z,38.84
2022-08-03T11:15:54.247Z,38.74
2022-08-03T11:16:55.199Z,38.65
2022-08-03T11:17:55.901Z,38.58
2022-08-03T11:18:54.189Z,38.48
2022-08-03T11:19:57.550Z,38.40
2022-08-03T11:20:54.189Z,38.30
2022-08-03T11:21:54.143Z,38.20
2022-08-03T11:22:54.128Z,38.15
2022-08-03T11:24:05.307Z,38.04
2022-08-03T11:24:55.100Z,37.92
2022-08-03T11:25:55.388Z,37.86
2022-08-03T11:26:54.099Z,37.77
2022-08-03T11:27:54.060Z,37.72
2022-08-03T11:28:54.047Z,37.72
2022-08-03T11:29:54.063Z,37.74
2022-08-03T11:30:54.056Z,37.78
2022-08-03T11:31:54.041Z,37.82
2022-08-03T11:32:54.012Z,37.87
2022-08-03T11:33:53.992Z,37.87
2022-08-03T11:34:53.972Z,37.83
2022-08-03T11:35:53.983Z,37.82
2022-08-03T11:36:53.952Z,37.75
2022-08-03T11:38:03.115Z,37.71
2022-08-03T11:38:54.923Z,37.67
2022-08-03T11:39:53.973Z,37.67
2022-08-03T11:40:53.912Z,37.63
2022-08-03T11:41:53.892Z,37.63
2022-08-03T11:42:53.887Z,37.60
2022-08-03T11:43:53.864Z,37.53
2022-08-03T11:44:53.890Z,37.45
2022-08-03T11:45:53.853Z,37.40
2022-08-03T11:46:53.823Z,37.40
2022-08-03T11:47:53.813Z,37.39
2022-08-03T11:48:53.828Z,37.42
2022-08-03T11:49:53.785Z,37.47
2022-08-03T11:50:53.784Z,37.44
2022-08-03T11:51:53.764Z,37.42
2022-08-03T11:52:53.744Z,37.37
2022-08-03T11:53:53.736Z,37.39
2022-08-03T11:54:57.173Z,37.35
2022-08-03T11:55:53.725Z,37.35
2022-08-03T11:56:53.695Z,37.35
2022-08-03T11:59:00.900Z,37.33
2022-08-03T11:59:15.214Z,37.29
2022-08-03T11:59:54.700Z,37.25
2022-08-03T12:00:53.657Z,37.15
2022-08-03T12:01:53.639Z,37.13
2022-08-03T12:02:53.651Z,37.08
2022-08-03T12:03:53.674Z,37.06
2022-08-03T12:04:53.597Z,37.01
2022-08-03T12:05:53.611Z,36.98
2022-08-03T12:06:53.571Z,36.98
2022-08-03T12:08:04.049Z,36.99
2022-08-03T12:08:54.546Z,37.02
2022-08-03T12:09:53.536Z,37.06
2022-08-03T12:10:53.528Z,37.06
2022-08-03T12:12:00.294Z,37.08
2022-08-03T12:12:54.499Z,37.03
2022-08-03T12:14:26.824Z,36.98
2022-08-03T12:14:54.478Z,36.95
2022-08-03T12:15:53.476Z,36.95
2022-08-03T12:16:53.471Z,36.89
2022-08-03T12:17:57.587Z,36.86
2022-08-03T12:18:53.419Z,36.84
2022-08-03T12:19:53.415Z,36.83
2022-08-03T12:20:53.401Z,36.81
2022-08-03T12:21:56.562Z,36.77
2022-08-03T12:22:53.378Z,36.77
2022-08-03T12:23:53.360Z,36.79
2022-08-03T12:24:53.342Z,36.77
2022-08-03T12:25:53.339Z,36.79
2022-08-03T12:26:59.009Z,36.83
2022-08-03T12:27:54.311Z,36.83
2022-08-03T12:28:53.302Z,36.88
2022-08-03T12:29:57.028Z,36.91
2022-08-03T12:30:54.974Z,36.92
2022-08-03T12:31:53.321Z,36.91
2022-08-03T12:32:53.262Z,36.93
2022-08-03T12:33:53.243Z,36.93
2022-08-03T12:34:53.227Z,36.98
2022-08-03T12:35:53.344Z,36.98
2022-08-03T12:36:53.215Z,36.98
2022-08-03T12:37:53.196Z,37.01
2022-08-03T12:38:53.174Z,37.06
2022-08-03T12:40:02.620Z,37.03
2022-08-03T12:40:54.154Z,36.99
2022-08-03T12:41:53.155Z,37.01
2022-08-03T12:42:53.125Z,37.03
2022-08-03T12:43:53.124Z,37.03
2022-08-03T12:44:54.714Z,37.07
2022-08-03T12:45:53.094Z,37.08
2022-08-03T12:46:53.085Z,37.08
2022-08-03T12:47:53.079Z,37.08
2022-08-03T12:48:53.075Z,37.03
2022-08-03T12:49:53.039Z,36.98
2022-08-03T12:50:53.672Z,36.93
2022-08-03T12:51:53.026Z,36.88